Time;durP1;ratioP1;P1;durP2;ratioP2;P2;SDS_P1;SDS_P2;PMS_P1;PMS_P2;Temp;Humidity;BMP_temperature;BMP_pressure;BME280_temperature;BME280_humidity;BME280_pressure;Samples;Min_cycle;Max_cycle;Signal;HPM_P1;HPM_P2
2021/12/28 00:00:31;;;;;;;22.27;2.10;;;;;;;-145.69;100.00;71203.41;5042077;28;20196;-75
2021/12/28 00:02:59;;;;;;;11.27;2.20;;;;;;;-145.69;100.00;71205.41;5053007;28;20196;-75
2021/12/28 00:05:28;;;;;;;11.80;1.90;;;;;;;-145.69;100.00;71249.19;5050601;28;20204;-75
2021/12/28 00:07:55;;;;;;;14.40;1.93;;;;;;;-145.69;100.00;71267.09;5050799;28;20203;-75
2021/12/28 00:10:21;;;;;;;15.10;2.93;;;;;;;-145.69;100.00;71237.25;5052467;28;20192;-75
2021/12/28 00:12:49;;;;;;;15.30;2.23;;;;;;;-145.69;100.00;71243.22;5043864;28;20208;-75
2021/12/28 00:15:33;;;;;;;22.57;2.57;;;;;;;-145.69;100.00;71245.19;5035588;28;20228;-75
2021/12/28 00:18:03;;;;;;;17.13;2.30;;;;;;;-145.69;100.00;71253.16;5036029;28;20250;-75
2021/12/28 00:20:32;;;;;;;20.33;2.57;;;;;;;-145.69;100.00;71237.25;5055592;28;20204;-75
2021/12/28 00:22:59;;;;;;;17.13;2.23;;;;;;;-145.69;100.00;71225.31;5051330;28;20200;-75
2021/12/28 00:25:26;;;;;;;21.93;2.60;;;;;;;-145.69;100.00;71215.34;5039352;28;20575;-75
2021/12/28 00:27:53;;;;;;;14.57;2.13;;;;;;;-145.69;100.00;71185.50;5052572;28;20200;-75
2021/12/28 00:30:20;;;;;;;15.83;2.30;;;;;;;-145.69;100.00;71171.56;5055215;28;20294;-76
2021/12/28 00:32:52;;;;;;;17.83;2.47;;;;;;;-145.69;100.00;71173.56;5052243;28;20528;-75
2021/12/28 00:35:21;;;;;;;16.20;2.50;;;;;;;-145.69;100.00;71179.53;5050440;28;20729;-75
2021/12/28 00:37:48;;;;;;;11.90;2.13;;;;;;;-145.69;100.00;71179.53;5047194;28;20685;-75
2021/12/28 00:40:14;;;;;;;14.27;2.10;;;;;;;-145.69;100.00;71195.47;5047434;28;20258;-76
2021/12/28 00:42:41;;;;;;;12.13;2.23;;;;;;;-145.69;100.00;71185.50;5036416;28;20207;-76
2021/12/28 00:45:08;;;;;;;13.73;2.10;;;;;;;-145.69;100.00;71201.41;5035185;28;20208;-75
2021/12/28 00:47:35;;;;;;;9.60;2.30;;;;;;;-145.69;100.00;71215.34;5045190;28;20658;-75
2021/12/28 00:50:01;;;;;;;14.30;2.40;;;;;;;-145.69;100.00;71203.41;5053386;28;20203;-76
2021/12/28 00:52:29;;;;;;;12.40;2.03;;;;;;;-145.69;100.00;71187.50;5054814;28;20543;-75
2021/12/28 00:54:56;;;;;;;13.83;1.90;;;;;;;-145.69;100.00;71163.63;5053188;28;20226;-75
2021/12/28 00:57:22;;;;;;;16.87;2.13;;;;;;;-145.69;100.00;71155.66;5043967;28;20293;-75
2021/12/28 00:59:49;;;;;;;20.13;2.30;;;;;;;-145.69;100.00;71151.69;5036092;28;20234;-76
2021/12/28 01:02:15;;;;;;;16.27;1.87;;;;;;;-145.69;100.00;71175.56;5044985;28;20200;-76
2021/12/28 01:04:42;;;;;;;14.00;2.03;;;;;;;-145.69;100.00;71189.47;5034716;28;20721;-75
2021/12/28 01:07:08;;;;;;;11.33;2.23;;;;;;;-145.69;100.00;71199.44;5038062;28;20671;-75
2021/12/28 01:09:36;;;;;;;12.30;1.97;;;;;;;-145.69;100.00;71207.38;5038589;28;20195;-75
2021/12/28 01:12:05;;;;;;;12.40;1.53;;;;;;;-145.69;100.00;71223.31;5050029;28;20245;-76
2021/12/28 01:14:33;;;;;;;11.17;1.70;;;;;;;-145.69;100.00;71223.31;5050703;28;20204;-76
2021/12/28 01:16:59;;;;;;;9.10;1.20;;;;;;;-145.69;100.00;71219.34;5044452;28;20192;-76
2021/12/28 01:19:26;;;;;;;6.23;1.50;;;;;;;-145.69;100.00;71239.22;5047422;28;20238;-75
2021/12/28 01:21:53;;;;;;;17.63;1.80;;;;;;;-145.69;100.00;71255.16;5052374;28;20207;-76
2021/12/28 01:24:19;;;;;;;6.80;1.33;;;;;;;-145.69;100.00;71269.06;5037938;28;20210;-75
2021/12/28 01:26:47;;;;;;;10.37;1.73;;;;;;;-145.69;100.00;71275.03;5054024;28;20230;-76
2021/12/28 01:29:14;;;;;;;9.37;1.70;;;;;;;-145.69;100.00;71281.00;5042592;28;20254;-75
2021/12/28 01:31:41;;;;;;;14.97;1.90;;;;;;;-145.69;100.00;71263.09;5043140;28;20204;-75
2021/12/28 01:34:09;;;;;;;11.10;1.97;;;;;;;-145.69;100.00;71267.09;5064174;28;20596;-75
2021/12/28 01:36:35;;;;;;;12.80;1.97;;;;;;;-145.69;100.00;71251.16;5045215;28;20239;-75
2021/12/28 01:39:04;;;;;;;7.80;1.63;;;;;;;-145.69;100.00;71263.09;5043310;28;20245;-75
2021/12/28 01:41:30;;;;;;;9.37;1.70;;;;;;;-145.69;100.00;71243.22;5053622;28;20199;-75
2021/12/28 01:44:00;;;;;;;12.97;1.80;;;;;;;-145.69;100.00;71243.22;5047997;28;20322;-75
2021/12/28 01:46:26;;;;;;;8.27;1.20;;;;;;;-145.69;100.00;71231.28;5037839;28;20207;-75
2021/12/28 01:48:53;;;;;;;10.80;1.90;;;;;;;-145.69;100.00;71251.16;5033765;28;20258;-75
2021/12/28 01:51:22;;;;;;;13.23;1.80;;;;;;;-145.69;100.00;71239.22;5035632;28;20286;-76
2021/12/28 01:53:51;;;;;;;20.60;1.70;;;;;;;-145.69;100.00;71211.38;5049199;28;20245;-75
2021/12/28 01:56:20;;;;;;;6.20;1.33;;;;;;;-145.69;100.00;71207.38;5050480;28;20780;-76
2021/12/28 01:58:47;;;;;;;9.10;1.67;;;;;;;-145.69;100.00;71225.31;5054000;28;20203;-75
2021/12/28 02:01:16;;;;;;;8.70;1.63;;;;;;;-145.69;100.00;71237.25;5050035;28;20207;-76
2021/12/28 02:03:44;;;;;;;13.83;1.77;;;;;;;-145.69;100.00;71231.28;5053780;28;20199;-76
2021/12/28 02:06:12;;;;;;;6.87;0.97;;;;;;;-145.69;100.00;71239.22;5044839;28;20223;-76
2021/12/28 02:08:39;;;;;;;7.17;1.97;;;;;;;-145.69;100.00;71207.38;5053484;28;20211;-75
2021/12/28 02:11:07;;;;;;;11.40;1.50;;;;;;;-145.69;100.00;71163.63;5047947;28;20214;-75
2021/12/28 02:13:33;;;;;;;9.97;1.63;;;;;;;-145.69;100.00;71157.66;5053061;28;20203;-76
2021/12/28 02:16:01;;;;;;;5.30;1.10;;;;;;;-145.69;100.00;71167.59;5044632;28;20222;-76
2021/12/28 02:18:31;;;;;;;11.53;1.23;;;;;;;-145.69;100.00;71131.78;5051927;28;20192;-76
2021/12/28 02:21:03;;;;;;;5.07;1.20;;;;;;;-145.69;100.00;71111.88;5035782;28;20241;-75
2021/12/28 02:23:29;;;;;;;8.23;1.53;;;;;;;-145.69;100.00;71109.91;5036903;28;20196;-75
2021/12/28 02:25:56;;;;;;;6.43;1.30;;;;;;;-145.69;100.00;71111.88;5033584;28;20331;-75
2021/12/28 02:28:22;;;;;;;4.33;1.00;;;;;;;-145.69;100.00;71095.97;5042044;28;20564;-76
2021/12/28 02:30:52;;;;;;;4.67;1.10;;;;;;;-145.69;100.00;71099.94;5048962;28;20254;-76
2021/12/28 02:33:20;;;;;;;3.93;1.10;;;;;;;-145.69;100.00;71105.91;5051196;28;20200;-75
2021/12/28 02:35:48;;;;;;;7.37;1.20;;;;;;;-145.69;100.00;71084.03;5049466;28;20231;-75
2021/12/28 02:38:16;;;;;;;10.10;1.20;;;;;;;-145.69;100.00;71070.09;5046802;28;20555;-76
2021/12/28 02:40:44;;;;;;;7.60;1.63;;;;;;;-145.69;100.00;71072.09;5050775;28;20566;-76
2021/12/28 02:43:12;;;;;;;3.50;1.00;;;;;;;-145.69;100.00;71042.25;5033640;28;20196;-75
2021/12/28 02:45:46;;;;;;;5.27;1.13;;;;;;;-145.69;100.00;71040.25;5033465;28;20299;-76
2021/12/28 02:48:13;;;;;;;4.53;1.30;;;;;;;-145.69;100.00;71050.22;5032765;28;20192;-75
2021/12/28 02:50:43;;;;;;;3.10;0.80;;;;;;;-145.69;100.00;71050.22;5040657;28;20224;-75
2021/12/28 02:53:12;;;;;;;4.87;1.30;;;;;;;-145.69;100.00;71068.13;5041058;28;20200;-75
2021/12/28 02:55:40;;;;;;;6.23;0.93;;;;;;;-145.69;100.00;71070.09;5039677;28;20254;-75
2021/12/28 02:58:08;;;;;;;4.40;1.10;;;;;;;-145.69;100.00;71068.13;5032685;28;20659;-75
2021/12/28 03:00:37;;;;;;;6.07;1.10;;;;;;;-145.69;100.00;71050.22;5034329;28;20246;-75
2021/12/28 03:03:09;;;;;;;8.43;1.83;;;;;;;-145.69;100.00;71048.22;5033072;28;20204;-75
2021/12/28 03:05:36;;;;;;;4.30;1.10;;;;;;;-145.69;100.00;71058.16;5036924;28;20199;-76
2021/12/28 03:08:03;;;;;;;6.17;1.20;;;;;;;-145.69;100.00;71040.25;5052818;28;20218;-76
2021/12/28 03:10:30;;;;;;;4.20;1.43;;;;;;;-145.69;100.00;71048.22;5051421;28;20187;-75
2021/12/28 03:12:58;;;;;;;4.73;1.10;;;;;;;-145.69;100.00;71052.19;5043856;28;20246;-76
2021/12/28 03:15:24;;;;;;;2.93;0.90;;;;;;;-145.69;100.00;71034.28;5043884;28;20195;-75
2021/12/28 03:17:51;;;;;;;5.87;1.13;;;;;;;-145.69;100.00;71006.44;5040981;28;20246;-75
2021/12/28 03:20:20;;;;;;;7.60;1.30;;;;;;;-145.69;100.00;70984.53;5071756;28;20203;-76
2021/12/28 03:22:46;;;;;;;6.30;1.10;;;;;;;-145.69;100.00;70990.50;5043326;28;20204;-76
2021/12/28 03:25:13;;;;;;;3.90;1.23;;;;;;;-145.69;100.00;70996.47;5039476;28;20732;-76
2021/12/28 03:27:41;;;;;;;1.33;0.70;;;;;;;-145.69;100.00;70978.56;5033251;28;20205;-76
2021/12/28 03:30:13;;;;;;;4.13;1.20;;;;;;;-145.69;100.00;70936.78;5040954;28;20352;-75
2021/12/28 03:32:40;;;;;;;4.73;0.70;;;;;;;-145.69;100.00;70928.84;5045888;28;20188;-75
2021/12/28 03:35:09;;;;;;;1.20;0.80;;;;;;;-145.69;100.00;70906.94;5037683;28;20211;-75
2021/12/28 03:37:35;;;;;;;5.33;0.80;;;;;;;-145.69;100.00;70904.97;5055004;28;20693;-75
2021/12/28 03:40:05;;;;;;;7.83;1.10;;;;;;;-145.69;100.00;70914.91;5055257;28;20210;-75
2021/12/28 03:42:31;;;;;;;2.83;1.07;;;;;;;-145.69;100.00;70899.00;5036742;28;20200;-75
2021/12/28 03:44:58;;;;;;;2.90;1.30;;;;;;;-145.69;100.00;70922.88;5036306;28;20195;-76
2021/12/28 03:47:26;;;;;;;2.30;0.90;;;;;;;-145.69;100.00;70916.91;5048899;28;20208;-75
2021/12/28 03:49:52;;;;;;;5.90;1.30;;;;;;;-145.69;100.00;70924.84;5043247;28;20196;-75
2021/12/28 03:52:19;;;;;;;5.70;1.10;;;;;;;-145.69;100.00;70916.91;5036089;28;20629;-76
2021/12/28 03:54:45;;;;;;;4.23;1.93;;;;;;;-145.69;100.00;70920.88;5035399;28;20197;-76
2021/12/28 03:57:12;;;;;;;3.23;1.20;;;;;;;-145.69;100.00;70912.91;5036506;28;20278;-76
2021/12/28 03:59:39;;;;;;;3.27;1.17;;;;;;;-145.69;100.00;70916.91;5036610;28;20231;-76
2021/12/28 04:02:05;;;;;;;4.23;1.30;;;;;;;-145.69;100.00;70926.84;5042567;28;20681;-76
2021/12/28 04:04:33;;;;;;;2.07;1.30;;;;;;;-145.69;100.00;70916.91;5046783;28;20227;-76
2021/12/28 04:07:00;;;;;;;3.70;1.30;;;;;;;-145.69;100.00;70926.84;5035790;28;20207;-75
2021/12/28 04:09:56;;;;;;;2.07;1.10;;;;;;;-145.69;100.00;70916.91;5035049;28;20690;-76
2021/12/28 04:12:23;;;;;;;4.37;1.20;;;;;;;-145.69;100.00;70920.88;5040361;28;20536;-75
2021/12/28 04:14:50;;;;;;;4.33;1.40;;;;;;;-145.69;100.00;70920.88;5054124;28;20610;-76
2021/12/28 04:17:16;;;;;;;6.87;1.33;;;;;;;-145.69;100.00;70918.88;5054320;28;20660;-76
2021/12/28 04:19:44;;;;;;;3.47;1.50;;;;;;;-145.69;100.00;70918.88;5035291;28;20196;-75
2021/12/28 04:22:11;;;;;;;3.20;1.53;;;;;;;-145.69;100.00;70928.84;5035763;28;20212;-75
2021/12/28 04:24:37;;;;;;;2.43;1.50;;;;;;;-145.69;100.00;70924.84;5052403;28;20206;-76
2021/12/28 04:27:04;;;;;;;2.53;1.47;;;;;;;-145.69;100.00;70930.81;5045183;28;20651;-76
2021/12/28 04:29:31;;;;;;;3.40;1.60;;;;;;;-145.69;100.00;70928.84;5051799;28;20206;-76
2021/12/28 04:31:57;;;;;;;3.23;1.53;;;;;;;-145.69;100.00;70924.84;5054954;28;20210;-77
2021/12/28 04:34:24;;;;;;;3.33;1.90;;;;;;;-145.69;100.00;70928.84;5040010;28;20196;-76
2021/12/28 04:36:52;;;;;;;2.70;1.63;;;;;;;-145.69;100.00;70940.78;5035619;28;20232;-76
2021/12/28 04:39:18;;;;;;;1.90;1.50;;;;;;;-145.69;100.00;70938.78;5049093;28;20218;-76
2021/12/28 04:41:45;;;;;;;2.87;1.70;;;;;;;-145.69;100.00;70956.69;5050169;28;20192;-75
2021/12/28 04:44:13;;;;;;;4.23;1.60;;;;;;;-145.69;100.00;70952.72;5053820;28;20207;-75
2021/12/28 04:46:40;;;;;;;3.87;1.60;;;;;;;-145.69;100.00;70944.75;5050911;28;20203;-76
2021/12/28 04:49:07;;;;;;;5.70;1.90;;;;;;;-145.69;100.00;70946.75;5034798;28;20226;-76
2021/12/28 04:51:33;;;;;;;4.00;1.80;;;;;;;-145.69;100.00;70944.75;5039138;28;20232;-76
2021/12/28 04:54:06;;;;;;;2.40;1.70;;;;;;;-145.69;100.00;70944.75;5035015;28;20568;-76
2021/12/28 04:56:32;;;;;;;3.33;1.73;;;;;;;-145.69;100.00;70930.81;5052656;28;20716;-76
2021/12/28 04:58:59;;;;;;;3.83;1.40;;;;;;;-145.69;100.00;70956.69;5054819;28;20594;-75
2021/12/28 05:01:25;;;;;;;5.67;1.67;;;;;;;-145.69;100.00;70942.75;5037515;28;20598;-76
2021/12/28 05:03:52;;;;;;;3.13;1.67;;;;;;;-145.69;100.00;70938.78;5050007;28;20265;-75
2021/12/28 05:06:18;;;;;;;3.80;1.90;;;;;;;-145.69;100.00;70936.78;5048800;28;20212;-75
2021/12/28 05:08:44;;;;;;;3.23;1.70;;;;;;;-145.69;100.00;70930.81;5040100;28;20200;-76
2021/12/28 05:11:14;;;;;;;2.63;1.70;;;;;;;-145.69;100.00;70938.78;5035664;28;20200;-75
2021/12/28 05:13:41;;;;;;;3.13;1.77;;;;;;;-145.69;100.00;70928.84;5053507;28;20203;-76
2021/12/28 05:16:07;;;;;;;3.90;1.80;;;;;;;-145.69;100.00;70918.88;5051998;28;20281;-75
2021/12/28 05:18:34;;;;;;;1.87;1.60;;;;;;;-145.69;100.00;70924.84;5054028;28;20732;-76
2021/12/28 05:21:00;;;;;;;4.23;1.83;;;;;;;-145.69;100.00;70930.81;5050175;28;20199;-75
2021/12/28 05:23:26;;;;;;;3.07;1.67;;;;;;;-145.69;100.00;70928.84;5054714;28;20211;-76
2021/12/28 05:25:53;;;;;;;2.83;1.50;;;;;;;-145.69;100.00;70936.78;5048704;28;20254;-75
2021/12/28 05:28:21;;;;;;;6.50;1.50;;;;;;;-145.69;100.00;70934.81;5044650;28;20606;-76
2021/12/28 05:30:47;;;;;;;2.13;1.43;;;;;;;-145.69;100.00;70924.84;5043660;28;20204;-76
2021/12/28 05:33:14;;;;;;;4.03;1.80;;;;;;;-145.69;100.00;70934.81;5034280;28;20204;-75
2021/12/28 05:35:40;;;;;;;3.90;1.30;;;;;;;-145.69;100.00;70924.84;5041872;28;20704;-75
2021/12/28 05:38:06;;;;;;;2.97;1.30;;;;;;;-145.69;100.00;70916.91;5054247;28;20632;-75
2021/12/28 05:40:33;;;;;;;3.53;1.20;;;;;;;-145.69;100.00;70893.03;5053987;28;20195;-76
2021/12/28 05:42:59;;;;;;;5.00;1.40;;;;;;;-145.69;100.00;70893.03;5054003;28;20200;-77
2021/12/28 05:45:27;;;;;;;1.53;0.93;;;;;;;-145.69;100.00;70895.00;5050253;28;20203;-77
2021/12/28 05:47:54;;;;;;;1.67;1.00;;;;;;;-145.69;100.00;70904.97;5041615;28;20559;-77
2021/12/28 05:50:20;;;;;;;1.77;1.13;;;;;;;-145.69;100.00;70895.00;5053652;28;20235;-77
2021/12/28 05:52:47;;;;;;;1.80;0.87;;;;;;;-145.69;100.00;70895.00;5046451;28;20193;-77
2021/12/28 05:55:13;;;;;;;2.03;1.00;;;;;;;-145.69;100.00;70877.09;5033864;28;20207;-77
2021/12/28 05:57:40;;;;;;;1.70;1.00;;;;;;;-145.69;100.00;70871.13;5040260;28;20224;-77
2021/12/28 06:00:09;;;;;;;1.33;1.10;;;;;;;-145.69;100.00;70881.09;5061666;28;20272;-77
2021/12/28 06:02:38;;;;;;;2.23;1.00;;;;;;;-145.69;100.00;70877.09;5066253;28;20258;-77
2021/12/28 06:05:05;;;;;;;1.40;1.10;;;;;;;-145.69;100.00;70891.03;5073757;28;20210;-77
2021/12/28 06:07:32;;;;;;;2.20;0.83;;;;;;;-145.69;100.00;70897.00;5052008;28;20206;-77
2021/12/28 06:09:59;;;;;;;1.00;0.90;;;;;;;-145.69;100.00;70916.91;5050693;28;20196;-78
2021/12/28 06:12:26;;;;;;;2.30;0.80;;;;;;;-145.69;100.00;70908.94;5033354;28;20215;-78
2021/12/28 06:14:53;;;;;;;1.93;0.93;;;;;;;-145.69;100.00;70908.94;5041255;28;20536;-77
2021/12/28 06:17:20;;;;;;;0.67;0.60;;;;;;;-145.69;100.00;70897.00;5050297;28;20280;-76
2021/12/28 06:19:47;;;;;;;2.40;0.70;;;;;;;-145.69;100.00;70893.03;5045964;28;20215;-77
2021/12/28 06:22:14;;;;;;;1.30;0.70;;;;;;;-145.69;100.00;70916.91;5036299;28;20198;-77
2021/12/28 06:24:41;;;;;;;2.67;0.87;;;;;;;-145.69;100.00;70900.97;5033816;28;20200;-77
2021/12/28 06:27:07;;;;;;;0.60;0.60;;;;;;;-145.69;100.00;70897.00;5051762;28;20551;-78
2021/12/28 06:29:34;;;;;;;0.70;0.70;;;;;;;-145.69;100.00;70906.94;5049202;28;20238;-77
2021/12/28 06:32:01;;;;;;;4.40;0.83;;;;;;;-145.69;100.00;70904.97;5048588;28;20605;-75
2021/12/28 06:34:27;;;;;;;0.93;0.60;;;;;;;-145.69;100.00;70887.06;5051347;28;20451;-77
2021/12/28 06:36:55;;;;;;;3.07;0.87;;;;;;;-145.69;100.00;70895.00;5042773;28;20225;-77
2021/12/28 06:39:21;;;;;;;0.90;0.63;;;;;;;-145.69;100.00;70887.06;5050793;28;20254;-77
2021/12/28 06:41:48;;;;;;;0.33;0.33;;;;;;;-145.69;100.00;70893.03;5036733;28;20199;-78
2021/12/28 06:44:14;;;;;;;1.60;0.60;;;;;;;-145.69;100.00;70885.06;5039666;28;20200;-78
2021/12/28 06:46:41;;;;;;;0.90;0.80;;;;;;;-145.69;100.00;70904.97;5037470;28;20200;-77
2021/12/28 06:49:07;;;;;;;1.00;0.70;;;;;;;-145.69;100.00;70916.91;5034051;28;20203;-76
2021/12/28 06:51:34;;;;;;;1.60;0.60;;;;;;;-145.69;100.00;70914.91;5032891;28;20235;-77
2021/12/28 06:54:02;;;;;;;0.60;0.60;;;;;;;-145.69;100.00;70908.94;5040556;28;20196;-77
2021/12/28 06:56:28;;;;;;;0.60;0.60;;;;;;;-145.69;100.00;70914.91;5050811;28;20204;-77
2021/12/28 06:58:54;;;;;;;0.67;0.63;;;;;;;-145.69;100.00;70918.88;5050780;28;20203;-77
2021/12/28 07:01:22;;;;;;;0.83;0.60;;;;;;;-145.69;100.00;70920.88;5053014;28;20204;-77
2021/12/28 07:03:49;;;;;;;0.87;0.60;;;;;;;-145.69;100.00;70918.88;5039243;28;20200;-77
2021/12/28 07:06:16;;;;;;;3.03;1.10;;;;;;;-145.69;100.00;70918.88;5033378;28;20200;-77
2021/12/28 07:08:43;;;;;;;2.17;0.67;;;;;;;-145.69;100.00;70912.91;5047882;28;20196;-77
2021/12/28 07:11:11;;;;;;;1.10;0.70;;;;;;;-145.69;100.00;70889.03;5047723;28;20196;-77
2021/12/28 07:13:37;;;;;;;2.13;1.27;;;;;;;-145.69;100.00;70893.03;5041933;28;20220;-77
2021/12/28 07:16:04;;;;;;;2.07;0.80;;;;;;;-145.69;100.00;70904.97;5063973;28;20198;-77
2021/12/28 07:18:30;;;;;;;1.73;1.00;;;;;;;-145.69;100.00;70904.97;5050234;28;20223;-77
2021/12/28 07:20:58;;;;;;;0.70;0.60;;;;;;;-145.69;100.00;70906.94;5041548;28;20245;-78
2021/12/28 07:23:25;;;;;;;0.60;0.60;;;;;;;-145.69;100.00;70895.00;5036354;28;20298;-78
2021/12/28 07:25:53;;;;;;;0.60;0.60;;;;;;;-145.69;100.00;70891.03;5036778;28;20206;-77
2021/12/28 07:28:21;;;;;;;0.40;0.40;;;;;;;-145.69;100.00;70889.03;5044701;28;20207;-77
2021/12/28 07:30:48;;;;;;;0.50;0.50;;;;;;;-145.69;100.00;70879.09;5046427;28;20559;-77
2021/12/28 07:33:14;;;;;;;0.57;0.57;;;;;;;-145.69;100.00;70889.03;5051818;28;20287;-77
2021/12/28 07:35:41;;;;;;;0.70;0.50;;;;;;;-145.69;100.00;70897.00;5048566;28;20678;-77
2021/12/28 07:38:07;;;;;;;0.40;0.40;;;;;;;-145.69;100.00;70908.94;5036209;28;20623;-77
2021/12/28 07:40:34;;;;;;;0.50;0.50;;;;;;;-145.69;100.00;70897.00;5046962;28;20207;-77
2021/12/28 07:43:01;;;;;;;0.50;0.40;;;;;;;-145.69;100.00;70912.91;5052442;28;20204;-77
2021/12/28 07:45:29;;;;;;;0.40;0.40;;;;;;;-145.69;100.00;70902.97;5043231;28;20248;-76
2021/12/28 07:47:55;;;;;;;0.40;0.40;;;;;;;-145.69;100.00;70906.94;5056006;28;20195;-77
2021/12/28 07:50:22;;;;;;;0.50;0.50;;;;;;;-145.69;100.00;70912.91;5054663;28;20227;-77
2021/12/28 07:52:52;;;;;;;0.40;0.40;;;;;;;-145.69;100.00;70920.88;5056104;28;20574;-77
2021/12/28 07:55:18;;;;;;;2.63;0.50;;;;;;;-145.69;100.00;70922.88;5046964;28;20199;-77
2021/12/28 07:57:44;;;;;;;0.53;0.53;;;;;;;-145.69;100.00;70920.88;5054329;28;20246;-78
2021/12/28 08:00:13;;;;;;;1.67;0.60;;;;;;;-145.69;100.00;70916.91;5054575;28;20620;-78
2021/12/28 08:02:43;;;;;;;1.30;0.50;;;;;;;-145.69;100.00;70906.94;5045033;28;20205;-77
2021/12/28 08:05:10;;;;;;;1.17;0.43;;;;;;;-145.69;100.00;70912.91;5039129;28;20265;-77
2021/12/28 08:07:37;;;;;;;23.17;7.87;;;;;;;-145.69;100.00;70908.94;5036164;28;20207;-77
2021/12/28 08:10:04;;;;;;;14.63;6.03;;;;;;;-145.69;100.00;70910.94;5040268;28;20453;-77
2021/12/28 08:12:30;;;;;;;6.20;3.90;;;;;;;-145.69;100.00;70893.03;5055751;28;20724;-77
2021/12/28 08:14:57;;;;;;;0.60;0.60;;;;;;;-145.69;100.00;70904.97;5045519;28;20204;-77
2021/12/28 08:17:26;;;;;;;3.13;2.60;;;;;;;-145.69;100.00;70910.94;5040467;28;20879;-77
2021/12/28 08:19:53;;;;;;;1.17;0.77;;;;;;;-145.69;100.00;70902.97;5042843;28;20249;-77
2021/12/28 08:22:20;;;;;;;0.60;0.60;;;;;;;-145.69;100.00;70889.03;5051951;28;20203;-77
2021/12/28 08:24:46;;;;;;;0.70;0.70;;;;;;;-145.69;100.00;70881.09;5052129;28;20219;-77
2021/12/28 08:27:13;;;;;;;1.47;0.70;;;;;;;-145.69;100.00;70881.09;5052071;28;20724;-77
2021/12/28 08:29:39;;;;;;;1.10;0.90;;;;;;;-145.69;100.00;70883.06;5055519;28;20196;-77
2021/12/28 08:32:06;;;;;;;0.60;0.60;;;;;;;-145.69;100.00;70885.06;5052040;28;20204;-77
2021/12/28 08:34:33;;;;;;;0.80;0.50;;;;;;;-145.69;100.00;70881.09;5042693;28;20206;-77
2021/12/28 08:37:01;;;;;;;0.40;0.40;;;;;;;-145.69;100.00;70885.06;5042859;28;20203;-77
2021/12/28 08:39:27;;;;;;;0.97;0.70;;;;;;;-145.69;100.00;70877.09;5055213;28;20257;-78
2021/12/28 08:41:54;;;;;;;0.50;0.50;;;;;;;-145.69;100.00;70881.09;5046137;28;20583;-77
2021/12/28 08:44:20;;;;;;;0.87;0.60;;;;;;;-145.69;100.00;70889.03;5035009;28;20215;-78
2021/12/28 08:46:47;;;;;;;0.60;0.60;;;;;;;-145.69;100.00;70877.09;5043749;28;20203;-77
2021/12/28 08:49:13;;;;;;;0.67;0.50;;;;;;;-145.69;100.00;70873.13;5054366;28;20234;-78
2021/12/28 08:51:40;;;;;;;0.70;0.60;;;;;;;-145.69;100.00;70867.16;5048130;28;20219;-77
2021/12/28 08:54:08;;;;;;;0.93;0.60;;;;;;;-145.69;100.00;70861.19;5050847;28;20208;-77
2021/12/28 08:56:34;;;;;;;0.40;0.40;;;;;;;-145.69;100.00;70863.19;5053414;28;20195;-77
2021/12/28 08:59:01;;;;;;;0.40;0.40;;;;;;;-145.69;100.00;70849.25;5049433;28;20231;-77
2021/12/28 09:01:27;;;;;;;0.50;0.50;;;;;;;-145.69;100.00;70821.41;5050776;28;20558;-77
2021/12/28 09:03:54;;;;;;;0.50;0.50;;;;;;;-145.69;100.00;70825.38;5040451;28;20200;-77
2021/12/28 09:06:21;;;;;;;0.40;0.40;;;;;;;-145.69;100.00;70821.41;5054941;28;20204;-77
2021/12/28 09:08:47;;;;;;;0.67;0.67;;;;;;;-145.69;100.00;70815.44;5045316;28;20203;-78
2021/12/28 09:11:15;;;;;;;1.10;0.60;;;;;;;-145.69;100.00;70815.44;5039657;28;20199;-77
2021/12/28 09:13:41;;;;;;;0.60;0.47;;;;;;;-145.69;100.00;70817.41;5054734;28;20195;-77
2021/12/28 09:16:08;;;;;;;0.50;0.50;;;;;;;-145.69;100.00;70811.44;5047139;28;20198;-77
2021/12/28 09:18:35;;;;;;;0.40;0.40;;;;;;;-145.69;100.00;70803.50;5041698;28;20768;-77
2021/12/28 09:21:01;;;;;;;1.03;0.60;;;;;;;-145.69;100.00;70801.50;5048797;28;20196;-77
2021/12/28 09:23:29;;;;;;;0.30;0.30;;;;;;;-145.69;100.00;70801.50;5051085;28;20233;-77
2021/12/28 09:25:55;;;;;;;0.30;0.27;;;;;;;-145.69;100.00;70793.53;5036846;28;20199;-78
2021/12/28 09:28:23;;;;;;;0.40;0.40;;;;;;;-145.69;100.00;70781.59;5043389;28;20212;-77
2021/12/28 09:30:50;;;;;;;0.63;0.40;;;;;;;-145.69;100.00;70761.72;5051855;28;20201;-77
2021/12/28 09:33:16;;;;;;;0.40;0.40;;;;;;;-145.69;100.00;70757.72;5038073;28;20196;-77
2021/12/28 09:35:43;;;;;;;2.90;0.60;;;;;;;-145.69;100.00;70763.69;5041377;28;20193;-77
2021/12/28 09:38:09;;;;;;;0.53;0.53;;;;;;;-145.69;100.00;70761.72;5040485;28;20227;-77
2021/12/28 09:40:36;;;;;;;0.50;0.50;;;;;;;-145.69;100.00;70761.72;5033910;28;20200;-77
2021/12/28 09:43:04;;;;;;;0.50;0.50;;;;;;;-145.69;100.00;70765.69;5034268;28;20204;-77
2021/12/28 09:45:33;;;;;;;0.80;0.60;;;;;;;-145.69;100.00;70773.66;5047076;28;20223;-77
2021/12/28 09:48:00;;;;;;;0.97;0.43;;;;;;;-145.69;100.00;70771.66;5033924;28;20204;-78
2021/12/28 09:50:27;;;;;;;0.80;0.60;;;;;;;-145.69;100.00;70777.63;5034071;28;20233;-77
2021/12/28 09:52:55;;;;;;;0.60;0.50;;;;;;;-145.69;100.00;70769.66;5033868;28;20200;-78
2021/12/28 09:55:24;;;;;;;1.13;0.70;;;;;;;-145.69;100.00;70777.63;5033759;28;20196;-78
2021/12/28 09:57:51;;;;;;;0.63;0.63;;;;;;;-145.69;100.00;70769.66;5033441;28;20227;-77
2021/12/28 10:00:19;;;;;;;2.00;0.73;;;;;;;-145.69;100.00;70761.72;5034402;28;20200;-78
2021/12/28 10:02:47;;;;;;;1.50;0.60;;;;;;;-145.69;100.00;70767.69;5033900;28;20196;-78
2021/12/28 10:05:17;;;;;;;0.83;0.60;;;;;;;-145.69;100.00;70757.72;5034351;28;20196;-79
2021/12/28 10:07:45;;;;;;;1.17;0.50;;;;;;;-145.69;100.00;70755.75;5033375;28;20242;-76
2021/12/28 10:10:12;;;;;;;0.50;0.50;;;;;;;-145.69;100.00;70753.75;5033666;28;20200;-77
2021/12/28 10:12:42;;;;;;;0.77;0.70;;;;;;;-145.69;100.00;70745.78;5046741;28;20199;-76
2021/12/28 10:15:11;;;;;;;0.53;0.50;;;;;;;-145.69;100.00;70747.78;5053247;28;20290;-77
2021/12/28 10:17:39;;;;;;;1.13;0.97;;;;;;;-145.69;100.00;70749.78;5040330;28;20245;-77
2021/12/28 10:20:13;;;;;;;0.80;0.80;;;;;;;-145.69;100.00;70731.88;5045214;28;20203;-77
2021/12/28 10:22:42;;;;;;;0.60;0.60;;;;;;;-145.69;100.00;70725.91;5053379;28;20226;-77
2021/12/28 10:25:12;;;;;;;3.50;0.90;;;;;;;-145.69;100.00;70719.94;5043182;28;20266;-76
2021/12/28 10:27:41;;;;;;;0.50;0.50;;;;;;;-145.69;100.00;70702.03;5046101;28;20665;-76
2021/12/28 10:30:15;;;;;;;0.73;0.73;;;;;;;-145.69;100.00;70694.06;5042472;28;20309;-77
2021/12/28 10:32:43;;;;;;;1.90;1.40;;;;;;;-145.69;100.00;70690.09;5035273;28;20666;-77
2021/12/28 10:35:14;;;;;;;1.83;1.20;;;;;;;-145.69;100.00;70666.22;5044671;28;20290;-77
2021/12/28 10:37:45;;;;;;;1.40;1.20;;;;;;;-145.69;100.00;70662.22;5039623;28;20563;-77
2021/12/28 10:40:22;;;;;;;2.73;1.10;;;;;;;-145.69;100.00;70654.28;5046722;28;20219;-75
2021/12/28 10:42:53;;;;;;;1.57;1.10;;;;;;;-145.69;100.00;70650.28;5044433;28;20198;-78
2021/12/28 10:45:21;;;;;;;1.03;0.93;;;;;;;-145.69;100.00;70654.28;5044158;28;20265;-77
2021/12/28 10:47:49;;;;;;;0.50;0.50;;;;;;;-145.69;100.00;70640.34;5037742;28;20199;-76
2021/12/28 10:50:39;;;;;;;3.43;0.83;;;;;;;-145.69;100.00;70630.41;5041287;28;20219;-77
2021/12/28 10:53:19;;;;;;;0.70;0.50;;;;;;;-145.69;100.00;70620.44;5047819;28;20294;-77
2021/12/28 10:55:48;;;;;;;1.10;0.90;;;;;;;-145.69;100.00;70610.50;5052920;28;20196;-78
2021/12/28 10:58:41;;;;;;;0.77;0.60;;;;;;;-145.69;100.00;70602.56;5044544;28;20246;-77
2021/12/28 11:01:11;;;;;;;1.00;0.67;;;;;;;-145.69;100.00;70594.59;5052338;28;20219;-77
2021/12/28 11:03:40;;;;;;;1.67;0.97;;;;;;;-145.69;100.00;70580.66;5053438;28;20222;-78
2021/12/28 11:06:17;;;;;;;2.57;1.40;;;;;;;-145.69;100.00;70578.69;5052770;28;20191;-77
2021/12/28 11:08:47;;;;;;;1.27;0.70;;;;;;;-145.69;100.00;70574.69;5053537;28;20206;-79